Time,TemperatureF,DewpointF,PressureIn,WindDirection,WindDirectionDegrees,WindSpeedMPH,WindSpeedGustMPH,Humidity,HourlyPrecipIn,Conditions,Clouds,dailyrainin,SoftwareType,DateUTC
2013-07-28 00:02:00,62.0,56.0,-100.00,WNW,300,4.0,6.0,79,-99.99,,,-99.99,,2013-07-28 04:02:00,
2013-07-28 00:12:00,62.0,56.0,-100.00,WNW,300,4.0,6.0,79,-99.99,,,-99.99,,2013-07-28 04:12:00,
2013-07-28 00:22:00,62.0,56.0,-100.00,WNW,300,4.0,6.0,79,-99.99,,,-99.99,,2013-07-28 04:22:00,
2013-07-28 00:32:00,62.0,56.0,-100.00,WNW,300,4.0,6.0,79,-99.99,,,-99.99,,2013-07-28 04:32:00,
2013-07-28 00:42:00,60.0,53.0,-100.00,WNW,285,3.0,7.0,77,-99.99,,,-99.99,,2013-07-28 04:42:00,
2013-07-28 01:02:00,60.0,53.0,-100.00,WNW,285,3.0,7.0,77,-99.99,,,-99.99,,2013-07-28 05:02:00,
2013-07-28 01:12:00,60.0,53.0,-100.00,WNW,285,3.0,7.0,77,-99.99,,,-99.99,,2013-07-28 05:12:00,
2013-07-28 01:22:00,60.0,53.0,-100.00,WNW,285,3.0,7.0,77,-99.99,,,-99.99,,2013-07-28 05:22:00,
2013-07-28 01:32:00,60.0,53.0,-100.00,WNW,285,3.0,7.0,77,-99.99,,,-99.99,,2013-07-28 05:32:00,
2013-07-28 02:02:00,58.0,52.0,-100.00,West,280,3.0,6.0,82,-99.99,,,-99.99,,2013-07-28 06:02:00,
2013-07-28 02:12:00,58.0,52.0,-100.00,West,280,3.0,6.0,82,-99.99,,,-99.99,,2013-07-28 06:12:00,
2013-07-28 02:22:00,58.0,52.0,-100.00,West,280,3.0,6.0,82,-99.99,,,-99.99,,2013-07-28 06:22:00,
2013-07-28 02:32:00,58.0,52.0,-100.00,West,280,3.0,6.0,82,-99.99,,,-99.99,,2013-07-28 06:32:00,
2013-07-28 02:42:00,56.0,53.0,-100.00,West,280,1.0,5.0,87,-99.99,,,-99.99,,2013-07-28 06:42:00,
2013-07-28 03:02:00,56.0,53.0,-100.00,West,280,1.0,5.0,87,-99.99,,,-99.99,,2013-07-28 07:02:00,
2013-07-28 03:12:00,56.0,53.0,-100.00,West,280,1.0,5.0,87,-99.99,,,-99.99,,2013-07-28 07:12:00,
2013-07-28 03:23:00,56.0,53.0,-100.00,West,280,1.0,5.0,87,-99.99,,,-99.99,,2013-07-28 07:23:00,
2013-07-28 03:32:00,56.0,53.0,-100.00,West,280,1.0,5.0,87,-99.99,,,-99.99,,2013-07-28 07:32:00,
2013-07-28 04:02:00,55.0,52.0,-100.00,West,270,2.0,4.0,90,-99.99,,,-99.99,,2013-07-28 08:02:00,
2013-07-28 04:12:00,55.0,52.0,-100.00,West,270,2.0,4.0,90,-99.99,,,-99.99,,2013-07-28 08:12:00,
2013-07-28 04:22:00,55.0,52.0,-100.00,West,270,2.0,4.0,90,-99.99,,,-99.99,,2013-07-28 08:22:00,
2013-07-28 04:33:00,55.0,52.0,-100.00,West,270,2.0,4.0,90,-99.99,,,-99.99,,2013-07-28 08:33:00,
2013-07-28 05:02:00,52.0,50.0,-100.00,WNW,290,0.0,1.0,92,-99.99,,,-99.99,,2013-07-28 09:02:00,
2013-07-28 05:12:00,52.0,50.0,-100.00,WNW,290,0.0,1.0,92,-99.99,,,-99.99,,2013-07-28 09:12:00,
2013-07-28 05:22:00,52.0,50.0,-100.00,WNW,290,0.0,1.0,92,-99.99,,,-99.99,,2013-07-28 09:22:00,
2013-07-28 05:32:00,52.0,50.0,-100.00,WNW,290,0.0,1.0,92,-99.99,,,-99.99,,2013-07-28 09:32:00,
2013-07-28 05:41:00,51.0,49.0,-100.00,West,265,1.0,1.0,94,-99.99,,,-99.99,,2013-07-28 09:41:00,
2013-07-28 06:02:00,51.0,49.0,-100.00,West,265,1.0,1.0,94,-99.99,,,-99.99,,2013-07-28 10:02:00,
2013-07-28 06:12:00,51.0,49.0,-100.00,West,265,1.0,1.0,94,-99.99,,,-99.99,,2013-07-28 10:12:00,
2013-07-28 06:22:00,51.0,49.0,-100.00,West,265,1.0,1.0,94,-99.99,,,-99.99,,2013-07-28 10:22:00,
2013-07-28 06:33:00,51.0,49.0,-100.00,West,265,1.0,1.0,94,-99.99,,,-99.99,,2013-07-28 10:33:00,
2013-07-28 08:02:00,54.0,53.0,-100.00,West,275,3.0,4.0,95,-99.99,,,-99.99,,2013-07-28 12:02:00,
2013-07-28 08:12:00,54.0,53.0,-100.00,West,275,3.0,4.0,95,-99.99,,,-99.99,,2013-07-28 12:12:00,
2013-07-28 08:22:00,54.0,53.0,-100.00,West,275,3.0,4.0,95,-99.99,,,-99.99,,2013-07-28 12:22:00,
2013-07-28 08:33:00,54.0,53.0,-100.00,West,275,3.0,4.0,95,-99.99,,,-99.99,,2013-07-28 12:33:00,
2013-07-28 08:43:00,54.0,53.0,-100.00,West,275,3.0,4.0,95,-99.99,,,-99.99,,2013-07-28 12:43:00,
2013-07-28 09:32:00,61.0,53.0,-100.00,West,265,3.0,6.0,74,-99.99,,,-99.99,,2013-07-28 13:32:00,
2013-07-28 09:43:00,61.0,53.0,-100.00,West,265,3.0,6.0,74,-99.99,,,-99.99,,2013-07-28 13:43:00,
2013-07-28 10:02:00,63.0,50.0,-100.00,West,260,4.0,7.0,63,-99.99,,,-99.99,,2013-07-28 14:02:00,
2013-07-28 10:12:00,63.0,50.0,-100.00,West,260,4.0,7.0,63,-99.99,,,-99.99,,2013-07-28 14:12:00,
2013-07-28 10:23:00,63.0,50.0,-100.00,West,260,4.0,7.0,63,-99.99,,,-99.99,,2013-07-28 14:23:00,
2013-07-28 10:33:00,63.0,50.0,-100.00,West,260,4.0,7.0,63,-99.99,,,-99.99,,2013-07-28 14:33:00,
2013-07-28 11:03:00,67.0,50.0,-100.00,West,260,9.0,14.0,55,-99.99,,,-99.99,,2013-07-28 15:03:00,
2013-07-28 11:13:00,67.0,50.0,-100.00,West,260,9.0,14.0,55,-99.99,,,-99.99,,2013-07-28 15:13:00,
2013-07-28 11:22:00,67.0,50.0,-100.00,West,260,9.0,14.0,55,-99.99,,,-99.99,,2013-07-28 15:22:00,
2013-07-28 11:32:00,67.0,50.0,-100.00,West,260,9.0,14.0,55,-99.99,,,-99.99,,2013-07-28 15:32:00,
2013-07-28 11:43:00,67.0,50.0,-100.00,West,260,9.0,14.0,55,-99.99,,,-99.99,,2013-07-28 15:43:00,
2013-07-28 12:03:00,69.0,49.0,-100.00,West,265,9.0,14.0,49,-99.99,,,-99.99,,2013-07-28 16:03:00,
2013-07-28 12:12:00,69.0,49.0,-100.00,West,265,9.0,14.0,49,-99.99,,,-99.99,,2013-07-28 16:12:00,
2013-07-28 12:22:00,69.0,49.0,-100.00,West,265,9.0,14.0,49,-99.99,,,-99.99,,2013-07-28 16:22:00,
2013-07-28 12:33:00,69.0,49.0,-100.00,West,265,9.0,14.0,49,-99.99,,,-99.99,,2013-07-28 16:33:00,
2013-07-28 12:43:00,71.0,49.0,-100.00,WSW,255,11.0,15.0,45,-99.99,,,-99.99,,2013-07-28 16:43:00,
2013-07-28 13:02:00,71.0,49.0,-100.00,WSW,255,11.0,15.0,45,-99.99,,,-99.99,,2013-07-28 17:02:00,
2013-07-28 13:13:00,71.0,49.0,-100.00,WSW,255,11.0,15.0,45,-99.99,,,-99.99,,2013-07-28 17:13:00,
2013-07-28 13:23:00,71.0,49.0,-100.00,WSW,255,11.0,15.0,45,-99.99,,,-99.99,,2013-07-28 17:23:00,
2013-07-28 13:33:00,71.0,49.0,-100.00,WSW,255,11.0,15.0,45,-99.99,,,-99.99,,2013-07-28 17:33:00,
2013-07-28 14:03:00,73.0,48.0,-100.00,West,275,8.0,16.0,41,-99.99,,,-99.99,,2013-07-28 18:03:00,
2013-07-28 14:13:00,73.0,48.0,-100.00,West,275,8.0,16.0,41,-99.99,,,-99.99,,2013-07-28 18:13:00,
2013-07-28 14:22:00,73.0,48.0,-100.00,West,275,8.0,16.0,41,-99.99,,,-99.99,,2013-07-28 18:22:00,
2013-07-28 14:33:00,73.0,48.0,-100.00,West,275,8.0,16.0,41,-99.99,,,-99.99,,2013-07-28 18:33:00,
2013-07-28 14:42:00,74.0,49.0,-100.00,West,275,6.0,14.0,41,-99.99,,,-99.99,,2013-07-28 18:42:00,
2013-07-28 15:03:00,74.0,49.0,-100.00,West,275,6.0,14.0,41,-99.99,,,-99.99,,2013-07-28 19:03:00,
2013-07-28 15:12:00,74.0,49.0,-100.00,West,275,6.0,14.0,41,-99.99,,,-99.99,,2013-07-28 19:12:00,
2013-07-28 15:22:00,74.0,49.0,-100.00,West,275,6.0,14.0,41,-99.99,,,-99.99,,2013-07-28 19:22:00,
2013-07-28 15:33:00,74.0,49.0,-100.00,West,275,6.0,14.0,41,-99.99,,,-99.99,,2013-07-28 19:33:00,
2013-07-28 15:40:00,74.0,49.0,-100.00,West,280,9.0,14.0,41,-99.99,,,-99.99,,2013-07-28 19:40:00,
2013-07-28 16:03:00,74.0,49.0,-100.00,West,280,9.0,14.0,41,-99.99,,,-99.99,,2013-07-28 20:03:00,
2013-07-28 16:13:00,74.0,49.0,-100.00,West,280,9.0,14.0,41,-99.99,,,-99.99,,2013-07-28 20:13:00,
2013-07-28 16:23:00,74.0,49.0,-100.00,West,280,9.0,14.0,41,-99.99,,,-99.99,,2013-07-28 20:23:00,
2013-07-28 16:33:00,74.0,49.0,-100.00,West,280,9.0,14.0,41,-99.99,,,-99.99,,2013-07-28 20:33:00,
2013-07-28 16:41:00,74.0,48.0,-100.00,West,265,9.0,16.0,40,-99.99,,,-99.99,,2013-07-28 20:41:00,
2013-07-28 17:03:00,74.0,48.0,-100.00,West,265,9.0,16.0,40,-99.99,,,-99.99,,2013-07-28 21:03:00,
2013-07-28 17:13:00,74.0,48.0,-100.00,West,265,9.0,16.0,40,-99.99,,,-99.99,,2013-07-28 21:13:00,
2013-07-28 17:23:00,74.0,48.0,-100.00,West,265,9.0,16.0,40,-99.99,,,-99.99,,2013-07-28 21:23:00,
2013-07-28 17:33:00,74.0,48.0,-100.00,West,265,9.0,16.0,40,-99.99,,,-99.99,,2013-07-28 21:33:00,
2013-07-28 17:41:00,73.0,49.0,-100.00,West,270,5.0,12.0,43,-99.99,,,-99.99,,2013-07-28 21:41:00,
2013-07-28 18:02:00,73.0,49.0,-100.00,West,270,5.0,12.0,43,-99.99,,,-99.99,,2013-07-28 22:02:00,
2013-07-28 18:12:00,73.0,49.0,-100.00,West,270,5.0,12.0,43,-99.99,,,-99.99,,2013-07-28 22:12:00,
2013-07-28 18:22:00,73.0,49.0,-100.00,West,270,5.0,12.0,43,-99.99,,,-99.99,,2013-07-28 22:22:00,
2013-07-28 18:32:00,73.0,49.0,-100.00,West,270,5.0,12.0,43,-99.99,,,-99.99,,2013-07-28 22:32:00,
2013-07-28 18:42:00,73.0,48.0,-100.00,West,270,6.0,10.0,41,-99.99,,,-99.99,,2013-07-28 22:42:00,
2013-07-28 19:03:00,73.0,48.0,-100.00,West,270,6.0,10.0,41,-99.99,,,-99.99,,2013-07-28 23:03:00,
2013-07-28 19:12:00,73.0,48.0,-100.00,West,270,6.0,10.0,41,-99.99,,,-99.99,,2013-07-28 23:12:00,
2013-07-28 19:22:00,73.0,48.0,-100.00,West,270,6.0,10.0,41,-99.99,,,-99.99,,2013-07-28 23:22:00,
2013-07-28 19:32:00,73.0,48.0,-100.00,West,270,6.0,10.0,41,-99.99,,,-99.99,,2013-07-28 23:32:00,
2013-07-28 19:42:00,71.0,49.0,-100.00,WSW,245,4.0,7.0,45,-99.99,,,-99.99,,2013-07-28 23:42:00,
2013-07-28 20:03:00,71.0,49.0,-100.00,WSW,245,4.0,7.0,45,-99.99,,,-99.99,,2013-07-29 00:03:00,
2013-07-28 20:12:00,71.0,49.0,-100.00,WSW,245,4.0,7.0,45,-99.99,,,-99.99,,2013-07-29 00:12:00,
2013-07-28 20:22:00,71.0,49.0,-100.00,WSW,245,4.0,7.0,45,-99.99,,,-99.99,,2013-07-29 00:22:00,
2013-07-28 20:32:00,71.0,49.0,-100.00,WSW,245,4.0,7.0,45,-99.99,,,-99.99,,2013-07-29 00:32:00,
2013-07-28 21:02:00,69.0,51.0,-100.00,SW,230,1.0,3.0,53,-99.99,,,-99.99,,2013-07-29 01:02:00,
2013-07-28 21:14:00,69.0,51.0,-100.00,SW,230,1.0,3.0,53,-99.99,,,-99.99,,2013-07-29 01:14:00,
2013-07-28 21:29:00,69.0,51.0,-100.00,SW,230,1.0,3.0,53,-99.99,,,-99.99,,2013-07-29 01:29:00,
2013-07-28 21:36:00,69.0,51.0,-100.00,SW,230,1.0,3.0,53,-99.99,,,-99.99,,2013-07-29 01:36:00,
2013-07-28 21:37:00,64.0,57.0,-100.00,SSW,210,0.0,1.0,78,-99.99,,,-99.99,,2013-07-29 01:37:00,
2013-07-28 22:06:00,64.0,57.0,-100.00,SSW,210,0.0,1.0,78,-99.99,,,-99.99,,2013-07-29 02:06:00,
2013-07-28 22:14:00,64.0,57.0,-100.00,SSW,210,0.0,1.0,78,-99.99,,,-99.99,,2013-07-29 02:14:00,
2013-07-28 22:27:00,64.0,57.0,-100.00,SSW,210,0.0,1.0,78,-99.99,,,-99.99,,2013-07-29 02:27:00,
2013-07-28 22:35:00,61.0,57.0,-100.00,SW,220,0.0,1.0,88,-99.99,,,-99.99,,2013-07-29 02:35:00,
2013-07-28 23:05:00,61.0,57.0,-100.00,SW,220,0.0,1.0,88,-99.99,,,-99.99,,2013-07-29 03:05:00,
2013-07-28 23:17:00,61.0,57.0,-100.00,SW,220,0.0,1.0,88,-99.99,,,-99.99,,2013-07-29 03:17:00,
2013-07-28 23:25:00,61.0,57.0,-100.00,SW,220,0.0,1.0,88,-99.99,,,-99.99,,2013-07-29 03:25:00,
2013-07-28 23:41:00,61.0,58.0,-100.00,SSE,155,0.0,2.0,90,-99.99,,,-99.99,,2013-07-29 03:41:00,